Hauptseite
METAR-TAF:

METAR-TAF

Flughäfen :

Flughafen Larnaka

Larnaka, Zypern

Breite: 34-53N, Länge: 033-38E, Höhe: 2 m

Beobachtung

Neuester Wetterbericht von vor 19 Minuten, um 05:30 UTC
Wind 4 kt aus West
Temperatur 30°C
Luftfeuchtigkeit 38%
Luftdruck 1011 hPa
Sichtweite 10 km oder mehr
Leicht bewölkt in der Höhe von 3000 ft

METAR: LCLK 190530Z 27004KT 9999 FEW030 30/14 Q1011 NOSIG

Zeit: 08:49 (05:49 UTC)

Prognose

Neuester Wetterbericht von vor 19 Minuten, um 05:30 UTC
Gültige Prognose vom 19 um 06 UTC bis 20 um 06 UTC
Wind 7 kt aus Ost
Sichtweite 10 km oder mehr
Leicht bewölkt in der Höhe von 3000 ft
Übergehend zu
vom 19 um 08 UTC bis 19 um 11 UTC
Wind 12 kt aus Süd/Südwest
Übergehend zu
vom 19 um 16 UTC bis 19 um 19 UTC
Wind 7 kt aus Nordwest

TAF: LCLK 190530Z 1906/2006 09007KT 9999 FEW030 BECMG 1908/1911 20012KT BECMG 1916/1919 31007KT

Wetterbeobachtungen und Prognosen von mehr als 4000 Flughäfen (METAR und TAF Bericht).

Die verfügbaren Stationen werden durch gelbe und rote Markierungen auf der Karte dargestellt.

Führen Sie die Maus auf sie, um den Namen der Station zu sehen.

Darauf klicken, um die Beobachtung von Wetterbeobachtungen und Prognosen zu sehen.

Um die Karte zu ändern : klicken Sie auf den grünen Tasten mit einem schwarzen Kreuz Zum Vergrößern, auf den grünen Button mit einem Gedankenstrich zu verkleinern, oder auf die grünen Pfeile für benachbarte Karten.


METAR-TAF: